Time;durP1;ratioP1;P1;durP2;ratioP2;P2;SDS_P1;SDS_P2;PMS_P1;PMS_P2;Temp;Humidity;BMP_temperature;BMP_pressure;BME280_temperature;BME280_humidity;BME280_pressure;Samples;Min_cycle;Max_cycle;Signal;HPM_P1;HPM_P2
2022/02/11 00:02:19;;;;;;;14.77;8.90;;;;;;;4.72;77.84;95618.97;5010533;28;20944;-81
2022/02/11 00:05:28;;;;;;;13.30;9.37;;;;;;;4.73;77.57;95618.06;4977683;28;20434;-79
2022/02/11 00:07:58;;;;;;;11.37;9.20;;;;;;;4.71;77.73;95619.88;5010538;28;20461;-79
2022/02/11 00:10:26;;;;;;;15.20;10.50;;;;;;;4.58;77.45;95614.44;5009955;28;20997;-80
2022/02/11 00:12:54;;;;;;;13.43;9.87;;;;;;;4.53;77.36;95607.81;5010335;28;20447;-80
2022/02/11 00:18:09;;;;;;;16.43;10.17;;;;;;;4.38;77.42;95616.38;4952172;29;20494;-80
2022/02/11 00:20:38;;;;;;;13.53;10.27;;;;;;;4.34;78.33;95611.31;4951634;28;20531;-80
2022/02/11 00:23:06;;;;;;;169.67;27.50;;;;;;;4.28;79.16;95611.59;4951731;29;20456;-80
2022/02/11 00:25:35;;;;;;;15.20;9.90;;;;;;;4.20;80.10;95605.09;4951668;29;20485;-79
2022/02/11 00:31:03;;;;;;;13.07;9.73;;;;;;;4.13;79.90;95621.91;4913947;29;20434;-80
2022/02/11 00:33:32;;;;;;;15.10;8.80;;;;;;;4.16;79.86;95621.75;4955616;28;20456;-79
2022/02/11 00:36:03;;;;;;;16.30;11.20;;;;;;;4.20;79.36;95618.94;4939998;29;20459;-80
2022/02/11 00:38:42;;;;;;;15.17;9.50;;;;;;;4.13;80.40;95604.56;4959470;28;20465;-79
2022/02/11 00:47:16;;;;;;;18.37;11.03;;;;;;;4.17;80.72;95608.69;4994454;28;20461;-79
2022/02/11 01:03:23;;;;;;;14.90;10.50;;;;;;;3.90;80.50;95578.84;5055510;28;20435;-80
2022/02/11 01:05:50;;;;;;;18.27;10.70;;;;;;;3.89;80.99;95584.97;5055711;28;20446;-80
2022/02/11 01:08:18;;;;;;;14.70;10.37;;;;;;;3.87;80.79;95585.03;5055476;28;20452;-80
2022/02/11 01:10:45;;;;;;;14.00;9.40;;;;;;;3.87;81.78;95589.38;5055381;28;20501;-81
2022/02/11 01:13:13;;;;;;;13.00;9.83;;;;;;;3.83;81.08;95577.47;5056099;28;20779;-79
2022/02/11 01:15:46;;;;;;;15.40;11.10;;;;;;;3.86;81.15;95567.78;5055598;28;20538;-79
2022/02/11 01:18:14;;;;;;;16.83;10.43;;;;;;;3.88;81.63;95580.69;5055195;28;20924;-80
2022/02/11 01:20:47;;;;;;;13.17;9.13;;;;;;;3.90;81.93;95577.09;5055398;28;20440;-79
2022/02/11 01:23:24;;;;;;;14.93;8.23;;;;;;;3.90;81.60;95576.25;5055258;28;20549;-80
2022/02/11 01:26:11;;;;;;;10.70;8.40;;;;;;;3.97;81.35;95569.84;5055167;28;20455;-78
2022/02/11 01:28:54;;;;;;;16.67;9.50;;;;;;;3.90;81.51;95574.50;5055326;28;20860;-78
2022/02/11 01:31:37;;;;;;;13.90;9.60;;;;;;;3.90;81.36;95563.28;5055623;28;20779;-77
2022/02/11 01:34:30;;;;;;;13.83;9.53;;;;;;;3.87;81.06;95568.63;5055070;28;20533;-79
2022/02/11 01:37:17;;;;;;;10.67;8.43;;;;;;;3.91;81.14;95560.59;5055058;28;20471;-78
2022/02/11 01:51:17;;;;;;;16.43;11.23;;;;;;;4.08;79.17;95572.78;4973888;28;20447;-80
2022/02/11 01:53:50;;;;;;;12.10;8.67;;;;;;;3.97;79.93;95564.66;4973641;28;20476;-78
2022/02/11 01:56:33;;;;;;;13.43;10.90;;;;;;;3.92;78.86;95562.28;4973819;28;20452;-80
2022/02/11 01:59:32;;;;;;;13.50;9.93;;;;;;;3.78;79.66;95572.50;4973545;28;20452;-80
2022/02/11 02:05:19;;;;;;;27.90;19.23;;;;;;;3.55;80.44;95568.38;4973469;28;20440;-79
2022/02/11 02:19:55;;;;;;;28.47;17.77;;;;;;;3.47;80.79;95567.03;4915557;29;20516;-80
2022/02/11 02:25:04;;;;;;;28.03;19.70;;;;;;;3.58;81.14;95572.59;4873296;29;21082;-79
2022/02/11 02:27:54;;;;;;;32.70;21.20;;;;;;;3.57;81.02;95581.28;4915434;29;20463;-80
2022/02/11 02:58:13;;;;;;;40.33;24.27;;;;;;;3.41;81.57;95563.81;4858971;29;20517;-79
2022/02/11 03:54:03;;;;;;;37.30;23.20;;;;;;;2.78;82.91;95577.91;4894973;29;20439;-79
2022/02/11 04:59:54;;;;;;;18.27;11.37;;;;;;;2.92;83.20;95569.56;4934152;29;20788;-79
2022/02/11 05:02:25;;;;;;;14.03;10.10;;;;;;;2.95;81.85;95577.19;4933600;29;20440;-80
2022/02/11 05:04:52;;;;;;;20.33;10.87;;;;;;;2.91;82.58;95571.31;4934109;29;20463;-80
2022/02/11 05:07:19;;;;;;;15.87;11.30;;;;;;;2.93;82.25;95579.00;4933517;29;20809;-80
2022/02/11 05:09:48;;;;;;;14.57;10.77;;;;;;;2.97;82.08;95578.81;4982298;28;20810;-81
2022/02/11 05:12:15;;;;;;;16.73;10.00;;;;;;;2.94;81.79;95580.69;5011180;28;20455;-79
2022/02/11 05:14:42;;;;;;;14.20;10.93;;;;;;;2.96;82.02;95581.47;5012354;28;20467;-80
2022/02/11 05:17:08;;;;;;;14.40;10.43;;;;;;;2.93;81.94;95574.66;5014555;28;20455;-80
2022/02/11 05:19:35;;;;;;;15.47;11.00;;;;;;;2.99;82.53;95581.31;5014419;28;20455;-81
2022/02/11 05:22:02;;;;;;;20.00;13.07;;;;;;;2.91;81.53;95573.91;5014787;28;20457;-80
2022/02/11 05:24:33;;;;;;;18.50;14.07;;;;;;;2.86;82.22;95552.50;5014629;28;20459;-80
2022/02/11 05:27:02;;;;;;;24.63;15.70;;;;;;;2.89;81.78;95567.94;5013793;28;20960;-80
2022/02/11 05:29:29;;;;;;;27.00;18.60;;;;;;;2.91;81.72;95575.66;5014017;28;20550;-79
2022/02/11 05:31:56;;;;;;;20.63;16.13;;;;;;;2.91;81.33;95579.06;5014987;28;20198;-80
2022/02/11 05:34:22;;;;;;;24.50;16.90;;;;;;;2.91;81.37;95580.81;5014015;28;20447;-80
2022/02/11 05:36:49;;;;;;;23.40;15.70;;;;;;;2.86;81.79;95572.38;5030182;28;20448;-80
2022/02/11 05:39:17;;;;;;;25.97;16.83;;;;;;;2.87;81.94;95576.66;5055863;28;20885;-80
2022/02/11 05:41:44;;;;;;;22.60;15.10;;;;;;;2.87;82.28;95580.09;5056173;28;20438;-79
2022/02/11 05:44:12;;;;;;;21.43;13.43;;;;;;;2.90;82.09;95595.53;5037938;28;20903;-79
2022/02/11 05:46:39;;;;;;;24.50;17.27;;;;;;;3.08;82.80;95589.53;5055646;28;21007;-79
2022/02/11 05:49:06;;;;;;;24.33;16.60;;;;;;;3.61;82.21;95593.19;5037261;28;20447;-79
2022/02/11 05:51:33;;;;;;;25.07;15.20;;;;;;;4.37;78.96;95596.50;5055538;28;20433;-79
2022/02/11 05:53:59;;;;;;;21.80;14.90;;;;;;;5.25;75.40;95611.03;5020624;28;20464;-79
2022/02/11 05:56:26;;;;;;;14.33;11.80;;;;;;;5.98;71.11;95610.59;5056478;28;20507;-79
2022/02/11 05:58:53;;;;;;;16.27;11.10;;;;;;;6.77;68.95;95617.38;5056137;28;20434;-81
2022/02/11 06:01:21;;;;;;;16.47;12.67;;;;;;;7.39;65.60;95618.00;5021030;28;20800;-80
2022/02/11 06:03:48;;;;;;;21.67;14.67;;;;;;;7.99;63.45;95616.94;5055735;28;20434;-80
2022/02/11 06:06:15;;;;;;;23.23;15.80;;;;;;;8.51;62.21;95619.69;5055436;28;20436;-84
2022/02/11 06:08:42;;;;;;;25.60;16.20;;;;;;;8.97;61.36;95614.06;5020873;28;20442;-81
2022/02/11 06:11:09;;;;;;;19.83;14.27;;;;;;;9.49;58.47;95611.34;5055657;28;20963;-83
2022/02/11 06:13:36;;;;;;;23.33;16.63;;;;;;;10.01;55.75;95618.19;5055201;28;20434;-82
2022/02/11 06:16:03;;;;;;;21.70;16.07;;;;;;;10.36;54.46;95620.94;5020525;28;20507;-83
2022/02/11 06:18:32;;;;;;;21.90;16.47;;;;;;;10.67;53.75;95616.91;5055402;28;20549;-81
2022/02/11 06:20:58;;;;;;;23.13;15.47;;;;;;;10.86;52.12;95622.50;5055695;28;20917;-82
2022/02/11 06:23:26;;;;;;;16.70;13.03;;;;;;;10.94;52.76;95619.28;5054957;28;20928;-81
2022/02/11 06:25:53;;;;;;;23.90;15.13;;;;;;;10.92;52.77;95610.69;5055892;28;20442;-82
2022/02/11 06:45:11;;;;;;;17.10;10.83;;;;;;;11.13;52.97;95621.38;5053740;28;20487;-83
2022/02/11 06:47:38;;;;;;;18.10;11.27;;;;;;;11.09;52.52;95623.41;5054742;28;20791;-82
2022/02/11 06:50:05;;;;;;;14.10;10.70;;;;;;;11.03;53.53;95618.63;5054847;28;20441;-83
2022/02/11 06:52:32;;;;;;;15.17;11.10;;;;;;;11.01;52.91;95627.56;5054537;28;20439;-82
2022/02/11 06:54:59;;;;;;;17.37;10.70;;;;;;;11.01;53.29;95620.53;5036673;28;20482;-84
2022/02/11 06:57:26;;;;;;;12.83;10.53;;;;;;;11.01;52.59;95615.28;5054658;28;20440;-83
2022/02/11 06:59:53;;;;;;;13.87;11.53;;;;;;;10.85;53.14;95610.31;5055258;28;20796;-83
2022/02/11 07:02:22;;;;;;;13.20;9.67;;;;;;;10.70;53.50;95615.88;5054403;28;20445;-82
2022/02/11 07:04:48;;;;;;;14.63;11.87;;;;;;;10.53;54.81;95602.19;5054595;28;20430;-82
2022/02/11 07:07:24;;;;;;;15.90;11.30;;;;;;;10.52;54.20;95600.53;5054623;28;20432;-82
2022/02/11 07:09:53;;;;;;;15.60;10.80;;;;;;;10.61;54.20;95604.25;5055159;28;20460;-82
2022/02/11 07:12:20;;;;;;;20.30;11.63;;;;;;;10.53;55.08;95602.19;5054457;28;20485;-83
2022/02/11 07:14:47;;;;;;;13.40;9.63;;;;;;;10.52;54.34;95607.56;5019674;28;20441;-83
2022/02/11 07:17:14;;;;;;;25.60;10.53;;;;;;;10.22;55.21;95616.69;5053980;28;20437;-82
2022/02/11 07:19:43;;;;;;;14.30;10.80;;;;;;;9.91;56.48;95607.53;5054267;28;20433;-83
2022/02/11 07:22:10;;;;;;;17.20;14.57;;;;;;;9.89;57.37;95609.41;5054069;28;20916;-83
2022/02/11 07:24:37;;;;;;;18.73;13.00;;;;;;;9.48;59.01;95599.19;5054172;28;20450;-82
2022/02/11 07:27:04;;;;;;;22.67;17.10;;;;;;;9.40;60.62;95608.53;5054538;28;20931;-83
2022/02/11 07:29:31;;;;;;;27.10;19.20;;;;;;;9.23;61.37;95604.44;5053966;28;20446;-83
2022/02/11 07:31:58;;;;;;;25.33;17.20;;;;;;;9.13;61.70;95601.59;5020669;28;20426;-83
2022/02/11 07:34:25;;;;;;;35.10;24.13;;;;;;;8.71;63.64;95594.84;5054113;28;20446;-83
2022/02/11 07:36:53;;;;;;;32.50;22.80;;;;;;;8.33;65.00;95598.19;5053279;28;20512;-83
2022/02/11 07:39:22;;;;;;;39.90;25.57;;;;;;;7.96;66.49;95598.81;5054022;28;20920;-83
2022/02/11 07:45:16;;;;;;;34.30;22.50;;;;;;;7.78;68.07;95598.19;5054567;28;20900;-83
2022/02/11 07:47:43;;;;;;;36.40;22.03;;;;;;;7.85;68.75;95601.28;5054846;28;20488;-84
2022/02/11 07:50:10;;;;;;;31.57;21.37;;;;;;;7.77;68.68;95599.13;5053773;28;20458;-83
2022/02/11 07:52:39;;;;;;;28.07;19.80;;;;;;;7.78;69.24;95598.19;5054591;28;20433;-84
2022/02/11 07:55:07;;;;;;;25.37;20.17;;;;;;;7.70;69.06;95592.63;5054429;28;20426;-83
2022/02/11 07:57:34;;;;;;;33.90;22.50;;;;;;;7.69;69.78;95593.56;5053318;28;20936;-83
2022/02/11 08:00:04;;;;;;;35.07;25.20;;;;;;;7.71;70.65;95594.28;5053755;28;20438;-83
2022/02/11 08:02:32;;;;;;;37.23;25.27;;;;;;;7.62;71.25;95587.03;5053232;28;20445;-83
2022/02/11 08:04:58;;;;;;;40.03;27.73;;;;;;;7.23;73.30;95591.16;5053533;28;20442;-83
2022/02/11 08:07:25;;;;;;;43.97;31.00;;;;;;;7.24;73.75;95585.00;5053375;28;20453;-83
2022/02/11 08:09:54;;;;;;;41.20;28.90;;;;;;;7.18;75.02;95587.97;5053483;28;20418;-81
2022/02/11 08:12:21;;;;;;;40.70;27.27;;;;;;;7.31;74.86;95586.31;5053269;28;20430;-81
2022/02/11 08:14:48;;;;;;;36.83;26.07;;;;;;;7.39;75.31;95585.84;5034928;28;20448;-82
2022/02/11 08:17:15;;;;;;;40.70;28.13;;;;;;;7.39;75.51;95586.69;5052319;28;20474;-82
2022/02/11 08:19:42;;;;;;;41.73;28.20;;;;;;;7.50;74.72;95591.22;5053325;28;20978;-82
2022/02/11 08:22:09;;;;;;;41.20;28.27;;;;;;;7.50;74.49;95585.16;5053465;28;20454;-83
2022/02/11 08:24:36;;;;;;;39.53;26.03;;;;;;;7.56;74.14;95584.81;5053000;28;20445;-82
2022/02/11 08:27:05;;;;;;;39.87;28.47;;;;;;;7.64;73.66;95593.84;5053297;28;20429;-82
2022/02/11 08:29:35;;;;;;;42.60;26.47;;;;;;;7.52;74.37;95572.84;5052696;28;20438;-82
2022/02/11 08:32:02;;;;;;;42.43;27.67;;;;;;;7.76;74.46;95587.00;5052659;28;20461;-83
2022/02/11 08:34:29;;;;;;;46.00;30.73;;;;;;;7.78;74.96;95574.69;5052480;28;20781;-83
2022/02/11 08:36:56;;;;;;;39.63;26.60;;;;;;;7.78;75.13;95572.91;5051996;28;20481;-83
2022/02/11 08:39:23;;;;;;;48.33;28.87;;;;;;;7.72;75.63;95569.84;5033104;28;20457;-82
2022/02/11 08:41:50;;;;;;;35.40;23.20;;;;;;;7.45;75.87;95561.97;5051895;28;20460;-82
2022/02/11 08:44:18;;;;;;;37.40;25.40;;;;;;;7.56;76.04;95571.75;5053062;28;20453;-83
2022/02/11 08:46:45;;;;;;;30.73;23.77;;;;;;;7.52;75.52;95565.91;5053492;28;20932;-82
2022/02/11 08:49:13;;;;;;;43.00;24.23;;;;;;;7.55;75.96;95563.09;5055674;28;20437;-82
2022/02/11 08:51:40;;;;;;;37.70;22.87;;;;;;;7.81;75.59;95564.06;5055079;28;20849;-82
2022/02/11 08:54:08;;;;;;;38.60;28.00;;;;;;;7.89;75.99;95559.19;5056931;28;20529;-82
2022/02/11 08:56:39;;;;;;;44.10;29.47;;;;;;;8.12;75.09;95554.28;5057775;28;20484;-83
2022/02/11 08:59:07;;;;;;;48.10;30.33;;;;;;;8.21;74.76;95556.28;5057138;28;20955;-82
2022/02/11 09:01:35;;;;;;;48.93;32.30;;;;;;;8.33;75.26;95552.84;5057024;28;20469;-83
2022/02/11 09:04:02;;;;;;;50.20;32.60;;;;;;;8.49;74.61;95552.75;5056939;28;20461;-83
2022/02/11 09:06:29;;;;;;;54.07;34.13;;;;;;;8.77;73.82;95549.13;5056793;28;20433;-83
2022/02/11 09:08:56;;;;;;;52.50;33.63;;;;;;;9.09;73.77;95552.19;5057013;28;20438;-83
2022/02/11 09:11:23;;;;;;;50.27;33.20;;;;;;;9.37;72.28;95548.50;5057256;28;20473;-84
2022/02/11 09:13:51;;;;;;;41.97;28.47;;;;;;;9.57;71.44;95553.19;5056745;28;20458;-84
2022/02/11 09:16:19;;;;;;;46.93;27.37;;;;;;;9.66;69.59;95551.69;5056610;28;20473;-82
2022/02/11 09:18:47;;;;;;;39.53;24.80;;;;;;;9.47;68.40;95549.53;5056942;28;20434;-83
2022/02/11 09:21:14;;;;;;;30.20;22.90;;;;;;;9.70;68.12;95550.53;5055938;28;20441;-82
2022/02/11 09:23:41;;;;;;;35.93;21.87;;;;;;;9.70;68.59;95554.00;5054696;28;20789;-82
2022/02/11 09:26:10;;;;;;;31.27;23.30;;;;;;;9.76;68.03;95548.31;5055420;28;20532;-83
2022/02/11 09:28:37;;;;;;;35.03;23.10;;;;;;;9.86;68.66;95551.97;5054619;28;20854;-82
2022/02/11 09:31:04;;;;;;;38.70;24.30;;;;;;;9.75;68.79;95530.91;5055336;28;20816;-82
2022/02/11 09:33:31;;;;;;;34.20;23.77;;;;;;;10.05;68.65;95540.13;5021552;28;20449;-87
2022/02/11 09:36:00;;;;;;;27.80;20.53;;;;;;;9.81;67.38;95538.31;5056458;28;20504;-83
2022/02/11 09:38:27;;;;;;;35.13;21.80;;;;;;;9.97;66.86;95538.06;5055986;28;20929;-84
2022/02/11 09:40:54;;;;;;;30.37;21.33;;;;;;;10.02;67.58;95532.50;5056161;28;20464;-83
2022/02/11 09:43:24;;;;;;;30.07;19.97;;;;;;;10.12;66.11;95533.50;5021347;28;20434;-83
2022/02/11 09:45:51;;;;;;;27.37;19.40;;;;;;;10.13;65.53;95530.78;5037591;28;20520;-82
2022/02/11 09:48:18;;;;;;;30.60;17.63;;;;;;;10.10;64.04;95525.75;5056154;28;20441;-83
2022/02/11 09:50:45;;;;;;;26.93;18.83;;;;;;;10.13;64.50;95527.34;5056075;28;20452;-83
2022/02/11 09:53:14;;;;;;;23.93;17.70;;;;;;;10.11;64.27;95518.72;5056175;28;20456;-83
2022/02/11 09:55:42;;;;;;;22.50;17.50;;;;;;;9.94;64.62;95522.56;5054000;28;20433;-83
2022/02/11 09:58:11;;;;;;;29.87;19.60;;;;;;;9.97;64.74;95513.66;5055984;28;20525;-83
2022/02/11 10:00:40;;;;;;;25.00;16.77;;;;;;;10.03;65.02;95515.81;5055651;28;20442;-82
2022/02/11 10:03:17;;;;;;;27.13;19.60;;;;;;;9.91;67.08;95507.91;5055780;28;20449;-83
2022/02/11 10:05:47;;;;;;;27.97;18.13;;;;;;;10.07;66.09;95509.41;5055758;28;20436;-84
2022/02/11 10:08:16;;;;;;;27.10;18.60;;;;;;;9.75;66.94;95502.09;5055668;28;20527;-83
2022/02/11 10:10:47;;;;;;;24.67;19.37;;;;;;;9.87;67.97;95500.38;5055526;28;20869;-83
2022/02/11 10:13:24;;;;;;;27.17;18.80;;;;;;;9.97;68.11;95505.78;5055668;28;20445;-82
2022/02/11 10:15:55;;;;;;;28.30;17.60;;;;;;;10.12;67.27;95491.53;5055881;28;20449;-83
2022/02/11 10:18:26;;;;;;;26.20;17.50;;;;;;;10.29;66.01;95490.34;5055630;28;20528;-81
2022/02/11 10:20:56;;;;;;;34.87;19.67;;;;;;;10.15;66.14;95483.47;5055385;28;20903;-83
2022/02/11 10:23:27;;;;;;;27.87;18.27;;;;;;;10.36;66.25;95481.91;5055091;28;20445;-81
2022/02/11 10:26:00;;;;;;;25.37;18.90;;;;;;;10.59;66.00;95472.31;5053956;28;20460;-82
2022/02/11 10:28:35;;;;;;;28.80;17.60;;;;;;;10.83;66.10;95469.63;5054304;28;20442;-81
2022/02/11 10:31:14;;;;;;;26.43;16.37;;;;;;;10.84;65.40;95469.50;5054076;28;20950;-83
2022/02/11 10:33:56;;;;;;;24.73;17.83;;;;;;;10.95;64.48;95463.41;5054105;28;20445;-83
2022/02/11 10:36:25;;;;;;;23.87;16.20;;;;;;;10.73;65.43;95455.53;5054394;28;20543;-82
2022/02/11 10:39:12;;;;;;;26.73;17.67;;;;;;;10.73;64.94;95442.41;5054648;28;20480;-82
2022/02/11 10:41:42;;;;;;;33.13;18.50;;;;;;;10.95;65.54;95445.03;5053959;28;20446;-83
2022/02/11 10:44:11;;;;;;;25.93;17.37;;;;;;;10.99;65.20;95443.88;5034957;28;20438;-83
2022/02/11 10:46:40;;;;;;;24.10;18.60;;;;;;;10.94;64.29;95435.47;5052804;28;20444;-81
2022/02/11 10:49:08;;;;;;;26.10;17.90;;;;;;;10.99;63.15;95430.72;5054016;28;20430;-83
2022/02/11 10:51:40;;;;;;;22.97;15.70;;;;;;;11.17;63.54;95425.81;5053446;28;20433;-81
2022/02/11 10:54:28;;;;;;;30.37;17.87;;;;;;;11.32;63.00;95429.03;5053936;28;20504;-83
2022/02/11 10:56:57;;;;;;;26.37;18.90;;;;;;;11.34;63.10;95432.38;5054105;28;21008;-83
2022/02/11 10:59:26;;;;;;;30.27;19.70;;;;;;;11.32;62.29;95421.16;5053389;28;20441;-83
2022/02/11 11:01:53;;;;;;;30.47;19.60;;;;;;;11.31;63.26;95422.13;5053419;28;20450;-83
2022/02/11 11:04:21;;;;;;;26.30;18.87;;;;;;;11.39;61.28;95419.72;5053131;28;20540;-83
2022/02/11 11:06:48;;;;;;;30.43;18.37;;;;;;;11.51;61.06;95408.19;5053433;28;20449;-83
2022/02/11 11:09:16;;;;;;;28.20;18.50;;;;;;;11.64;62.03;95411.53;5017701;28;20530;-82
2022/02/11 11:11:45;;;;;;;27.47;18.70;;;;;;;11.64;61.32;95405.44;5052535;28;20480;-84
2022/02/11 11:14:13;;;;;;;29.47;18.10;;;;;;;11.75;60.76;95405.41;5053530;28;20820;-82
2022/02/11 11:16:42;;;;;;;28.67;18.40;;;;;;;11.78;60.08;95405.19;5052938;28;20489;-81
2022/02/11 11:19:09;;;;;;;37.07;17.77;;;;;;;11.75;60.78;95400.13;5017861;28;20453;-83
2022/02/11 11:21:39;;;;;;;25.80;16.33;;;;;;;11.84;61.31;95388.88;5053146;28;20521;-82
2022/02/11 11:24:07;;;;;;;27.57;15.70;;;;;;;11.91;59.49;95386.63;5053023;28;20442;-82
2022/02/11 11:26:39;;;;;;;27.80;16.07;;;;;;;12.04;59.05;95389.91;5052774;28;20449;-80
2022/02/11 11:29:12;;;;;;;29.80;17.30;;;;;;;12.09;60.65;95371.94;5052921;28;20447;-82
2022/02/11 11:31:39;;;;;;;29.00;18.10;;;;;;;12.22;59.76;95380.50;5017489;28;20465;-84
2022/02/11 11:34:27;;;;;;;29.13;18.93;;;;;;;12.29;58.25;95373.75;5053077;28;20461;-83
2022/02/11 11:36:55;;;;;;;35.33;18.60;;;;;;;12.30;57.90;95371.94;5052699;28;20481;-83
2022/02/11 11:39:23;;;;;;;28.17;16.77;;;;;;;12.32;58.02;95368.22;5052685;28;20430;-83
2022/02/11 11:42:00;;;;;;;31.43;17.93;;;;;;;12.28;57.49;95360.72;5052764;28;20695;-83
2022/02/11 11:44:28;;;;;;;37.00;19.83;;;;;;;12.22;56.93;95356.81;5052064;28;20476;-82
2022/02/11 11:47:02;;;;;;;23.93;18.37;;;;;;;12.32;57.06;95355.06;5052479;28;20446;-82
2022/02/11 11:49:40;;;;;;;29.97;19.50;;;;;;;12.45;56.68;95346.97;5052702;28;20938;-83
2022/02/11 11:52:08;;;;;;;29.17;19.33;;;;;;;12.47;56.91;95339.78;5052645;28;20528;-83
2022/02/11 11:54:35;;;;;;;28.53;18.77;;;;;;;12.61;56.33;95341.22;5052696;28;20584;-83
2022/02/11 11:57:04;;;;;;;29.00;19.77;;;;;;;12.72;56.55;95330.59;5052548;28;21001;-83
2022/02/11 11:59:37;;;;;;;30.30;20.43;;;;;;;12.78;56.01;95318.72;5052840;28;20446;-83
2022/02/11 12:02:06;;;;;;;44.87;21.40;;;;;;;12.86;55.07;95317.09;5053960;28;20456;-82
2022/02/11 12:04:34;;;;;;;33.97;18.80;;;;;;;12.98;55.95;95313.38;5053471;28;20426;-83
2022/02/11 12:07:04;;;;;;;26.60;19.37;;;;;;;13.00;54.17;95310.59;5053330;28;20473;-83
2022/02/11 12:09:31;;;;;;;31.13;18.77;;;;;;;13.10;54.46;95305.38;5053465;28;20448;-82
2022/02/11 12:12:01;;;;;;;24.30;18.00;;;;;;;13.16;54.15;95300.38;5053872;28;20482;-83
2022/02/11 12:14:30;;;;;;;25.63;18.43;;;;;;;13.19;53.50;95299.31;5053573;28;21002;-85
2022/02/11 12:20:26;;;;;;;27.83;18.40;;;;;;;13.05;53.27;95304.94;5052082;28;20406;-82
2022/02/11 12:28:21;;;;;;;27.00;17.53;;;;;;;13.23;52.04;95290.16;5053196;28;20417;-83
2022/02/11 12:30:48;;;;;;;35.00;18.27;;;;;;;13.15;51.79;95284.72;5053550;28;20434;-83
2022/02/11 12:33:15;;;;;;;28.40;18.17;;;;;;;13.21;51.77;95277.13;5053875;28;20456;-83
2022/02/11 12:35:45;;;;;;;35.10;21.67;;;;;;;13.20;51.39;95279.91;5049753;28;20543;-83
2022/02/11 12:38:12;;;;;;;25.77;18.20;;;;;;;13.18;52.04;95269.50;5042191;28;20555;-82
2022/02/11 12:40:41;;;;;;;32.83;19.50;;;;;;;13.19;52.24;95272.97;4998813;28;20454;-82
2022/02/11 12:43:10;;;;;;;28.70;18.93;;;;;;;13.13;51.78;95281.38;5033505;28;20537;-83
2022/02/11 12:45:38;;;;;;;36.30;19.00;;;;;;;13.28;51.40;95266.84;5033288;28;20446;-83
2022/02/11 12:48:09;;;;;;;32.17;18.83;;;;;;;13.36;51.55;95267.03;5051892;28;20445;-83
2022/02/11 12:50:39;;;;;;;33.70;20.43;;;;;;;13.31;51.22;95262.19;5053319;28;20516;-83
2022/02/11 12:53:09;;;;;;;31.40;18.63;;;;;;;13.25;50.75;95267.97;5053042;28;20452;-82
2022/02/11 12:55:37;;;;;;;28.93;19.23;;;;;;;13.32;51.01;95252.47;5052369;28;20452;-83
2022/02/11 12:58:06;;;;;;;29.70;18.53;;;;;;;13.34;49.97;95255.78;5053065;28;20481;-84
2022/02/11 13:00:36;;;;;;;37.17;19.60;;;;;;;13.27;50.46;95260.75;5053269;28;20422;-82
2022/02/11 13:03:04;;;;;;;32.77;18.73;;;;;;;13.34;50.40;95253.16;5053192;28;20433;-83
2022/02/11 13:05:33;;;;;;;36.27;20.63;;;;;;;13.41;50.41;95245.53;5052802;28;20445;-83
2022/02/11 13:22:27;;;;;;;30.73;18.83;;;;;;;13.61;49.64;95245.38;5051924;28;20956;-83
2022/02/11 13:24:54;;;;;;;28.63;20.27;;;;;;;13.63;49.96;95235.53;5053257;28;20529;-82
2022/02/11 13:27:21;;;;;;;28.03;19.07;;;;;;;13.72;49.47;95236.47;5056615;28;20445;-84
2022/02/11 13:32:42;;;;;;;31.10;20.77;;;;;;;13.74;49.28;95231.06;5014498;28;20428;-85
2022/02/11 13:35:11;;;;;;;35.30;22.80;;;;;;;13.75;48.49;95219.53;5013800;28;20439;-82
2022/02/11 13:37:45;;;;;;;27.83;20.70;;;;;;;13.72;48.80;95230.38;5015619;28;20582;-82
2022/02/11 13:40:15;;;;;;;46.00;23.10;;;;;;;13.83;48.70;95235.47;5017554;28;20969;-81
2022/02/11 13:42:42;;;;;;;33.20;21.10;;;;;;;13.69;48.94;95236.75;5014957;28;20578;-83
2022/02/11 13:45:12;;;;;;;35.73;22.40;;;;;;;13.76;49.50;95242.31;5014484;28;20436;-83
2022/02/11 13:47:56;;;;;;;38.67;21.83;;;;;;;13.76;49.77;95239.66;5015113;28;20957;-83
2022/02/11 13:50:24;;;;;;;35.37;21.57;;;;;;;13.72;49.20;95235.66;5014703;28;20526;-83
2022/02/11 13:53:06;;;;;;;33.77;20.80;;;;;;;13.85;49.80;95225.63;5014399;28;20451;-83
2022/02/11 13:55:34;;;;;;;32.57;21.33;;;;;;;13.93;48.68;95237.16;5015431;28;20459;-84
2022/02/11 13:58:16;;;;;;;31.90;22.10;;;;;;;14.00;48.87;95226.84;5014480;28;20494;-84
2022/02/11 14:00:43;;;;;;;38.70;23.00;;;;;;;14.05;48.32;95224.63;5015135;28;20455;-85
2022/02/11 14:03:20;;;;;;;47.57;24.07;;;;;;;14.05;48.65;95219.34;5028736;28;20449;-84
2022/02/11 14:05:49;;;;;;;41.10;25.40;;;;;;;13.98;48.91;95223.53;5056892;28;20437;-84
2022/02/11 14:08:19;;;;;;;37.13;23.33;;;;;;;13.96;48.17;95214.94;5059507;28;20530;-84
2022/02/11 14:10:48;;;;;;;42.57;25.20;;;;;;;14.04;48.35;95212.41;5060666;28;20544;-83
2022/02/11 14:13:15;;;;;;;35.63;23.57;;;;;;;14.03;48.09;95213.38;5057160;28;20495;-81
2022/02/11 14:15:43;;;;;;;49.27;25.57;;;;;;;14.03;48.61;95220.47;5037675;28;20441;-83
2022/02/11 14:18:10;;;;;;;43.63;24.23;;;;;;;14.04;48.00;95212.41;5056077;28;20473;-84
2022/02/11 14:20:38;;;;;;;39.37;25.50;;;;;;;14.01;48.35;95211.84;5055659;28;20788;-83
2022/02/11 14:23:12;;;;;;;44.40;25.43;;;;;;;14.02;48.73;95218.78;5055850;28;20446;-83
2022/02/11 14:25:42;;;;;;;40.60;25.80;;;;;;;13.98;48.27;95215.63;5055296;28;20446;-83
2022/02/11 14:28:11;;;;;;;46.90;27.40;;;;;;;13.99;48.63;95219.09;5055694;28;20524;-83
2022/02/11 14:30:39;;;;;;;39.60;20.70;;;;;;;13.93;48.63;95220.50;5055804;28;20970;-83
2022/02/11 14:33:06;;;;;;;38.13;24.43;;;;;;;13.91;48.58;95223.28;5055132;28;20442;-82
2022/02/11 14:35:34;;;;;;;40.40;22.70;;;;;;;13.95;48.93;95218.53;5055321;28;20422;-84
2022/02/11 14:38:01;;;;;;;39.27;24.60;;;;;;;13.86;48.51;95219.38;5055239;28;20564;-83
2022/02/11 14:40:28;;;;;;;39.83;26.40;;;;;;;13.94;49.27;95222.16;5055137;28;20806;-83
2022/02/11 14:42:57;;;;;;;39.80;26.53;;;;;;;13.97;48.67;95216.59;5055106;28;20525;-82
2022/02/11 14:45:24;;;;;;;39.77;26.97;;;;;;;13.93;48.98;95204.66;5055135;28;20452;-83
2022/02/11 14:47:51;;;;;;;45.13;24.87;;;;;;;13.90;48.76;95210.22;5054907;28;20513;-82
2022/02/11 14:50:18;;;;;;;41.33;23.90;;;;;;;13.80;48.62;95204.13;5055091;28;20442;-84
2022/02/11 14:52:45;;;;;;;38.60;20.50;;;;;;;13.80;48.58;95206.75;5054758;28;20493;-83
2022/02/11 14:55:13;;;;;;;33.43;21.93;;;;;;;13.73;48.54;95197.75;5054965;28;20774;-82
2022/02/11 14:57:40;;;;;;;50.87;23.67;;;;;;;13.65;49.01;95206.38;5054725;28;20487;-82
2022/02/11 15:00:11;;;;;;;35.27;22.03;;;;;;;13.55;48.89;95206.38;5054631;28;20438;-84
2022/02/11 15:02:38;;;;;;;37.33;19.57;;;;;;;13.53;48.65;95213.59;5054596;28;20917;-83
2022/02/11 15:05:07;;;;;;;34.90;22.13;;;;;;;13.51;48.74;95210.25;5054440;28;20481;-84
2022/02/11 15:07:34;;;;;;;33.97;18.70;;;;;;;13.33;48.61;95202.25;5055146;28;20434;-82
2022/02/11 15:10:01;;;;;;;33.07;21.03;;;;;;;13.45;48.68;95205.56;5054298;28;20786;-83
2022/02/11 15:12:28;;;;;;;35.30;22.43;;;;;;;13.51;48.66;95205.00;5036095;28;20445;-84
2022/02/11 15:14:55;;;;;;;59.70;34.33;;;;;;;13.54;48.95;95202.06;5054052;28;20489;-84
2022/02/11 15:17:23;;;;;;;74.43;42.30;;;;;;;13.51;48.72;95212.91;5019906;28;20453;-83
2022/02/11 15:19:50;;;;;;;60.70;42.27;;;;;;;13.45;49.17;95199.44;5054343;28;20821;-83
2022/02/11 15:22:17;;;;;;;57.30;34.50;;;;;;;13.44;49.92;95209.16;5035562;28;20470;-82
2022/02/11 15:24:48;;;;;;;63.57;36.30;;;;;;;13.39;50.87;95211.41;5054092;28;20434;-82
2022/02/11 15:27:16;;;;;;;56.27;31.33;;;;;;;13.31;52.22;95203.34;5054416;28;20816;-80
2022/02/11 15:29:43;;;;;;;52.97;29.80;;;;;;;13.26;53.83;95205.56;5054350;28;20468;-81
2022/02/11 15:32:11;;;;;;;46.80;26.20;;;;;;;13.14;54.59;95201.38;5054236;28;20512;-82
2022/02/11 15:34:40;;;;;;;59.43;27.10;;;;;;;13.08;54.88;95207.19;5053865;28;20453;-82
2022/02/11 15:37:07;;;;;;;45.97;27.97;;;;;;;12.97;56.34;95211.59;5054458;28;20446;-82
2022/02/11 15:39:34;;;;;;;62.73;31.47;;;;;;;12.86;56.17;95221.44;5054074;28;20511;-82